Bosporus — V2QY — position and weather

sailwx.info

Track history (hours):
 
Tides and Currents Weather Stations Pressure Air Temp Water Temp Dewpoint Dewpoint Depression Visibility Wind Speed Wind Dir Waves Ship Positions

Bosporus

Last reported at 2014-Oct-20 19:27 UTC. Time now 2014-Oct-20 21:17 UTC.
Position N 41°16' E 002°17'.

Length 100 m; draft 5.8 m.

Type: Cargo ship. MMSI: 304010802.

Date/timePositionNaut miles runAvg speedWind from/ knotsBaromVisibWave heightAir tempDewpointWater temp
2014-Oct-20 19:27N 41°16' E 002°17'19 9.7
2014-Oct-20 17:29N 41°28' E 002°37'10 9.2
2014-Oct-20 16:26N 41°34' E 002°47'30 9.7
2014-Oct-20 13:21N 41°52' E 003°19'1011.0
2014-Oct-20 12:27N 42°00' E 003°27'1910.0
2014-Oct-20 10:32N 42°15' E 003°43'1210.9
2014-Oct-20 09:28N 42°24' E 003°53'910.1
2014-Oct-20 08:32N 42°31' E 004°01'1610.8
2014-Oct-20 07:05N 42°43' E 004°15'2910.3
2014-Oct-20 04:14N 43°06' E 004°40'7 9.9
2014-Oct-20 03:33N 43°11' E 004°46'10 9.8
2014-Oct-20 02:32N 43°19' E 004°55'7 7.3
2014-Oct-20 01:33N 43°26' E 004°54'0 0.0
2014-Oct-20 00:33N 43°26' E 004°54'0 0.0
2014-Oct-19 23:33N 43°26' E 004°54'0 0.0
2014-Oct-19 22:33N 43°26' E 004°54'0 0.0
2014-Oct-19 21:33N 43°26' E 004°54'0 0.0
2014-Oct-19 20:30N 43°26' E 004°54'0 0.0
2014-Oct-19 19:21N 43°26' E 004°54'0 0.0
2014-Oct-19 18:33N 43°26' E 004°54'0 0.0
2014-Oct-19 17:33N 43°26' E 004°54'0 0.0
2014-Oct-19 16:33N 43°26' E 004°54'0 0.0
2014-Oct-19 15:33N 43°26' E 004°54'0 0.0
2014-Oct-19 14:30N 43°26' E 004°54'0 0.0
2014-Oct-19 13:33N 43°26' E 004°54'0 0.0
2014-Oct-19 12:30N 43°26' E 004°54'0 0.0
2014-Oct-19 11:30N 43°26' E 004°54'0 0.0
2014-Oct-19 10:30N 43°26' E 004°54'0 0.0
2014-Oct-19 09:24N 43°26' E 004°54'0 0.0
2014-Oct-19 08:30N 43°26' E 004°54'0 0.0
2014-Oct-19 07:30N 43°26' E 004°54'0 0.0
2014-Oct-19 06:33N 43°26' E 004°54'0 0.0
2014-Oct-19 05:24N 43°26' E 004°54'0 0.0
2014-Oct-19 04:33N 43°26' E 004°54'0 0.0
2014-Oct-19 03:30N 43°26' E 004°54'0 0.0
2014-Oct-19 02:27N 43°26' E 004°54'0 0.0
2014-Oct-19 01:33N 43°26' E 004°54'0 0.0
2014-Oct-19 00:30N 43°26' E 004°54'0 0.0
2014-Oct-18 23:30N 43°26' E 004°54'0 0.0
2014-Oct-18 22:31N 43°26' E 004°54'3 2.9
2014-Oct-18 21:33N 43°24' E 004°57'0 0.0
2014-Oct-18 20:33N 43°24' E 004°57'0 0.0
2014-Oct-18 19:33N 43°24' E 004°57'0 0.0
2014-Oct-18 18:33N 43°24' E 004°57'0 0.0
2014-Oct-18 17:33N 43°24' E 004°57'0 0.0
2014-Oct-18 16:33N 43°24' E 004°57'0 0.0
2014-Oct-18 15:33N 43°24' E 004°57'0 0.0
2014-Oct-18 14:33N 43°24' E 004°57'0 0.0
2014-Oct-18 13:33N 43°24' E 004°57'0 0.0
2014-Oct-18 12:33N 43°24' E 004°57'0 0.0
2014-Oct-18 11:33N 43°24' E 004°57'0 0.0
2014-Oct-18 10:33N 43°24' E 004°57'0 0.0
2014-Oct-18 09:33N 43°24' E 004°57'0 0.0
2014-Oct-18 08:33N 43°24' E 004°57'0 0.0
2014-Oct-18 07:33N 43°24' E 004°57'0 0.0
2014-Oct-18 06:33N 43°24' E 004°57'0 0.0
2014-Oct-18 05:33N 43°24' E 004°57'0 0.0
2014-Oct-18 04:33N 43°24' E 004°57'0 0.0
2014-Oct-18 03:30N 43°24' E 004°57'0 0.0
2014-Oct-18 02:33N 43°24' E 004°57'0 0.0
2014-Oct-18 01:33N 43°24' E 004°57'0 0.1
2014-Oct-18 00:33N 43°24' E 004°57'0 0.0
2014-Oct-17 23:33N 43°24' E 004°57'0 0.0
2014-Oct-17 22:27N 43°24' E 004°57'0 0.0
2014-Oct-17 21:33N 43°24' E 004°57'0 0.0
2014-Oct-17 20:33N 43°24' E 004°57'0 0.0
2014-Oct-17 19:33N 43°24' E 004°57'0 0.0
2014-Oct-17 18:33N 43°24' E 004°57'0 0.0
2014-Oct-17 17:33N 43°24' E 004°57'0 0.0
2014-Oct-17 16:33N 43°24' E 004°57'0 0.0
2014-Oct-17 15:33N 43°24' E 004°57'0 0.0
2014-Oct-17 14:33N 43°24' E 004°57'0 0.0
2014-Oct-17 13:33N 43°24' E 004°57'0 0.0
2014-Oct-17 12:33N 43°24' E 004°57'0 0.0
2014-Oct-17 11:33N 43°24' E 004°57'0 0.0
2014-Oct-17 10:33N 43°24' E 004°57'0 0.0
2014-Oct-17 09:33N 43°24' E 004°57'0 0.0
2014-Oct-17 08:33N 43°24' E 004°57'6 5.8
2014-Oct-17 07:34N 43°19' E 004°60'9 9.2
2014-Oct-17 06:32N 43°09' E 004°60'10210.2
2014-Oct-16 20:33N 41°56' E 003°24'1110.6
2014-Oct-16 19:32N 41°49' E 003°13'9 9.2
2014-Oct-16 18:32N 41°43' E 003°04'1410.8
2014-Oct-16 17:12N 41°34' E 002°48'910.9
2014-Oct-16 16:25N 41°29' E 002°39'3110.6
2014-Oct-16 13:32N 41°13' E 002°05'1210.7
2014-Oct-16 12:26N 41°09' E 001°50'1210.4
2014-Oct-16 11:20N 41°06' E 001°35'18 0.4
2014-Oct-14 12:06N 41°08' E 001°59'37 9.8
2014-Oct-14 08:23N 41°29' E 002°39'910.2
2014-Oct-14 07:27N 41°35' E 002°49'103 9.3
2014-Oct-13 20:17N 42°55' E 004°16'21 7.6
2014-Oct-13 17:33N 43°10' E 004°36'11 7.5
2014-Oct-13 16:04N 43°16' E 004°49'4 7.8
2014-Oct-13 15:33N 43°18' E 004°53'7 6.7
2014-Oct-13 14:33N 43°25' E 004°53'1 0.6
2014-Oct-13 13:19N 43°26' E 004°54'0 0.0
2014-Oct-13 12:28N 43°26' E 004°54'0 0.0
2014-Oct-13 11:19N 43°26' E 004°54'0 0.0
2014-Oct-13 10:25N 43°26' E 004°54'0 0.0
2014-Oct-13 09:28N 43°26' E 004°54'0 0.0
2014-Oct-13 06:31N 43°26' E 004°54'0 0.0
2014-Oct-13 05:28N 43°26' E 004°54'0 0.0
2014-Oct-13 04:28N 43°26' E 004°54'0 0.0
2014-Oct-13 03:28N 43°26' E 004°54'0 0.0
2014-Oct-13 02:28N 43°26' E 004°54'0 0.0
2014-Oct-13 01:31N 43°26' E 004°54'0 0.0
2014-Oct-13 00:25N 43°26' E 004°54'0 0.0
2014-Oct-12 23:28N 43°26' E 004°54'0 0.0
2014-Oct-12 22:31N 43°26' E 004°54'0 0.0
2014-Oct-12 21:25N 43°26' E 004°54'0 0.0
2014-Oct-12 20:28N 43°26' E 004°54'0 0.0
2014-Oct-12 19:28N 43°26' E 004°54'0 0.0
2014-Oct-12 18:31N 43°26' E 004°54'0 0.0
2014-Oct-12 17:28N 43°26' E 004°54'0 0.0
2014-Oct-12 16:31N 43°26' E 004°54'0 0.0
2014-Oct-12 15:31N 43°26' E 004°54'0 0.0
2014-Oct-12 14:28N 43°26' E 004°54'0 0.0
2014-Oct-12 13:31N 43°26' E 004°54'0 0.0
2014-Oct-12 12:31N 43°26' E 004°54'0 0.0
2014-Oct-12 11:31N 43°26' E 004°54'0 0.0
2014-Oct-12 10:28N 43°26' E 004°54'0 0.0
2014-Oct-12 09:31N 43°26' E 004°54'0 0.0
2014-Oct-12 08:31N 43°26' E 004°54'0 0.0
2014-Oct-12 07:31N 43°26' E 004°54'0 0.0
2014-Oct-12 06:31N 43°26' E 004°54'0 0.0
2014-Oct-12 05:31N 43°26' E 004°54'0 0.0
2014-Oct-12 04:28N 43°26' E 004°54'0 0.0
2014-Oct-12 03:31N 43°26' E 004°54'0 0.0
2014-Oct-12 02:33N 43°26' E 004°54'3 2.5
2014-Oct-12 01:31N 43°25' E 004°57'0 0.0
2014-Oct-12 00:31N 43°25' E 004°57'0 0.0
2014-Oct-11 23:31N 43°25' E 004°57'0 0.0
2014-Oct-11 22:31N 43°25' E 004°57'0 0.0
2014-Oct-11 21:31N 43°25' E 004°57'0 0.1
2014-Oct-11 20:28N 43°25' E 004°57'3 3.5
2014-Oct-11 19:34N 43°22' E 004°58'1110.3
2014-Oct-11 18:31N 43°11' E 005°02'1110.9
2014-Oct-11 17:33N 43°03' E 004°52'1110.6
2014-Oct-11 16:32N 42°56' E 004°42'6310.1
2014-Oct-11 10:15N 42°10' E 003°42'17 9.8
2014-Oct-11 08:32N 41°58' E 003°26'10310.3
2014-Oct-10 22:30N 40°57' E 001°35'  
Track history (hours):
 
Tides and Currents Weather Stations Pressure Air Temp Water Temp Dewpoint Dewpoint Depression Visibility Wind Speed Wind Dir Waves Ship Positions

Bosporus

Last reported at 2014-Oct-20 19:27 UTC. Time now 2014-Oct-20 21:17 UTC.
Position N 41°16' E 002°17'.

Length 100 m; draft 5.8 m.

Type: Cargo ship. MMSI: 304010802.

Date/timePositionNaut miles runAvg speedWind from/ knotsBaromVisibWave heightAir tempDewpointWater temp
2014-Oct-20 19:27N 41°16' E 002°17'19 9.7
2014-Oct-20 17:29N 41°28' E 002°37'10 9.2
2014-Oct-20 16:26N 41°34' E 002°47'30 9.7
2014-Oct-20 13:21N 41°52' E 003°19'1011.0
2014-Oct-20 12:27N 42°00' E 003°27'1910.0
2014-Oct-20 10:32N 42°15' E 003°43'1210.9
2014-Oct-20 09:28N 42°24' E 003°53'910.1
2014-Oct-20 08:32N 42°31' E 004°01'1610.8
2014-Oct-20 07:05N 42°43' E 004°15'2910.3
2014-Oct-20 04:14N 43°06' E 004°40'7 9.9
2014-Oct-20 03:33N 43°11' E 004°46'10 9.8
2014-Oct-20 02:32N 43°19' E 004°55'7 7.3
2014-Oct-20 01:33N 43°26' E 004°54'0 0.0
2014-Oct-20 00:33N 43°26' E 004°54'0 0.0
2014-Oct-19 23:33N 43°26' E 004°54'0 0.0
2014-Oct-19 22:33N 43°26' E 004°54'0 0.0
2014-Oct-19 21:33N 43°26' E 004°54'0 0.0
2014-Oct-19 20:30N 43°26' E 004°54'0 0.0
2014-Oct-19 19:21N 43°26' E 004°54'0 0.0
2014-Oct-19 18:33N 43°26' E 004°54'0 0.0
2014-Oct-19 17:33N 43°26' E 004°54'0 0.0
2014-Oct-19 16:33N 43°26' E 004°54'0 0.0
2014-Oct-19 15:33N 43°26' E 004°54'0 0.0
2014-Oct-19 14:30N 43°26' E 004°54'0 0.0
2014-Oct-19 13:33N 43°26' E 004°54'0 0.0
2014-Oct-19 12:30N 43°26' E 004°54'0 0.0
2014-Oct-19 11:30N 43°26' E 004°54'0 0.0
2014-Oct-19 10:30N 43°26' E 004°54'0 0.0
2014-Oct-19 09:24N 43°26' E 004°54'0 0.0
2014-Oct-19 08:30N 43°26' E 004°54'0 0.0
2014-Oct-19 07:30N 43°26' E 004°54'0 0.0
2014-Oct-19 06:33N 43°26' E 004°54'0 0.0
2014-Oct-19 05:24N 43°26' E 004°54'0 0.0
2014-Oct-19 04:33N 43°26' E 004°54'0 0.0
2014-Oct-19 03:30N 43°26' E 004°54'0 0.0
2014-Oct-19 02:27N 43°26' E 004°54'0 0.0
2014-Oct-19 01:33N 43°26' E 004°54'0 0.0
2014-Oct-19 00:30N 43°26' E 004°54'0 0.0
2014-Oct-18 23:30N 43°26' E 004°54'0 0.0
2014-Oct-18 22:31N 43°26' E 004°54'3 2.9
2014-Oct-18 21:33N 43°24' E 004°57'0 0.0
2014-Oct-18 20:33N 43°24' E 004°57'0 0.0
2014-Oct-18 19:33N 43°24' E 004°57'0 0.0
2014-Oct-18 18:33N 43°24' E 004°57'0 0.0
2014-Oct-18 17:33N 43°24' E 004°57'0 0.0
2014-Oct-18 16:33N 43°24' E 004°57'0 0.0
2014-Oct-18 15:33N 43°24' E 004°57'0 0.0
2014-Oct-18 14:33N 43°24' E 004°57'0 0.0
2014-Oct-18 13:33N 43°24' E 004°57'0 0.0
2014-Oct-18 12:33N 43°24' E 004°57'0 0.0
2014-Oct-18 11:33N 43°24' E 004°57'0 0.0
2014-Oct-18 10:33N 43°24' E 004°57'0 0.0
2014-Oct-18 09:33N 43°24' E 004°57'0 0.0
2014-Oct-18 08:33N 43°24' E 004°57'0 0.0
2014-Oct-18 07:33N 43°24' E 004°57'0 0.0
2014-Oct-18 06:33N 43°24' E 004°57'0 0.0
2014-Oct-18 05:33N 43°24' E 004°57'0 0.0
2014-Oct-18 04:33N 43°24' E 004°57'0 0.0
2014-Oct-18 03:30N 43°24' E 004°57'0 0.0
2014-Oct-18 02:33N 43°24' E 004°57'0 0.0
2014-Oct-18 01:33N 43°24' E 004°57'0 0.1
2014-Oct-18 00:33N 43°24' E 004°57'0 0.0
2014-Oct-17 23:33N 43°24' E 004°57'0 0.0
2014-Oct-17 22:27N 43°24' E 004°57'0 0.0
2014-Oct-17 21:33N 43°24' E 004°57'0 0.0
2014-Oct-17 20:33N 43°24' E 004°57'0 0.0
2014-Oct-17 19:33N 43°24' E 004°57'0 0.0
2014-Oct-17 18:33N 43°24' E 004°57'0 0.0
2014-Oct-17 17:33N 43°24' E 004°57'0 0.0
2014-Oct-17 16:33N 43°24' E 004°57'0 0.0
2014-Oct-17 15:33N 43°24' E 004°57'0 0.0
2014-Oct-17 14:33N 43°24' E 004°57'0 0.0
2014-Oct-17 13:33N 43°24' E 004°57'0 0.0
2014-Oct-17 12:33N 43°24' E 004°57'0 0.0
2014-Oct-17 11:33N 43°24' E 004°57'0 0.0
2014-Oct-17 10:33N 43°24' E 004°57'0 0.0
2014-Oct-17 09:33N 43°24' E 004°57'0 0.0
2014-Oct-17 08:33N 43°24' E 004°57'6 5.8
2014-Oct-17 07:34N 43°19' E 004°60'9 9.2
2014-Oct-17 06:32N 43°09' E 004°60'10210.2
2014-Oct-16 20:33N 41°56' E 003°24'1110.6
2014-Oct-16 19:32N 41°49' E 003°13'9 9.2
2014-Oct-16 18:32N 41°43' E 003°04'1410.8
2014-Oct-16 17:12N 41°34' E 002°48'910.9
2014-Oct-16 16:25N 41°29' E 002°39'3110.6
2014-Oct-16 13:32N 41°13' E 002°05'1210.7
2014-Oct-16 12:26N 41°09' E 001°50'1210.4
2014-Oct-16 11:20N 41°06' E 001°35'18 0.4
2014-Oct-14 12:06N 41°08' E 001°59'37 9.8
2014-Oct-14 08:23N 41°29' E 002°39'910.2
2014-Oct-14 07:27N 41°35' E 002°49'103 9.3
2014-Oct-13 20:17N 42°55' E 004°16'21 7.6
2014-Oct-13 17:33N 43°10' E 004°36'11 7.5
2014-Oct-13 16:04N 43°16' E 004°49'4 7.8
2014-Oct-13 15:33N 43°18' E 004°53'7 6.7
2014-Oct-13 14:33N 43°25' E 004°53'1 0.6
2014-Oct-13 13:19N 43°26' E 004°54'0 0.0
2014-Oct-13 12:28N 43°26' E 004°54'0 0.0
2014-Oct-13 11:19N 43°26' E 004°54'0 0.0
2014-Oct-13 10:25N 43°26' E 004°54'0 0.0
2014-Oct-13 09:28N 43°26' E 004°54'0 0.0
2014-Oct-13 06:31N 43°26' E 004°54'0 0.0
2014-Oct-13 05:28N 43°26' E 004°54'0 0.0
2014-Oct-13 04:28N 43°26' E 004°54'0 0.0
2014-Oct-13 03:28N 43°26' E 004°54'0 0.0
2014-Oct-13 02:28N 43°26' E 004°54'0 0.0
2014-Oct-13 01:31N 43°26' E 004°54'0 0.0
2014-Oct-13 00:25N 43°26' E 004°54'0 0.0
2014-Oct-12 23:28N 43°26' E 004°54'0 0.0
2014-Oct-12 22:31N 43°26' E 004°54'0 0.0
2014-Oct-12 21:25N 43°26' E 004°54'0 0.0
2014-Oct-12 20:28N 43°26' E 004°54'0 0.0
2014-Oct-12 19:28N 43°26' E 004°54'0 0.0
2014-Oct-12 18:31N 43°26' E 004°54'0 0.0
2014-Oct-12 17:28N 43°26' E 004°54'0 0.0
2014-Oct-12 16:31N 43°26' E 004°54'0 0.0
2014-Oct-12 15:31N 43°26' E 004°54'0 0.0
2014-Oct-12 14:28N 43°26' E 004°54'0 0.0
2014-Oct-12 13:31N 43°26' E 004°54'0 0.0
2014-Oct-12 12:31N 43°26' E 004°54'0 0.0
2014-Oct-12 11:31N 43°26' E 004°54'0 0.0
2014-Oct-12 10:28N 43°26' E 004°54'0 0.0
2014-Oct-12 09:31N 43°26' E 004°54'0 0.0
2014-Oct-12 08:31N 43°26' E 004°54'0 0.0
2014-Oct-12 07:31N 43°26' E 004°54'0 0.0
2014-Oct-12 06:31N 43°26' E 004°54'0 0.0
2014-Oct-12 05:31N 43°26' E 004°54'0 0.0
2014-Oct-12 04:28N 43°26' E 004°54'0 0.0
2014-Oct-12 03:31N 43°26' E 004°54'0 0.0
2014-Oct-12 02:33N 43°26' E 004°54'3 2.5
2014-Oct-12 01:31N 43°25' E 004°57'0 0.0
2014-Oct-12 00:31N 43°25' E 004°57'0 0.0
2014-Oct-11 23:31N 43°25' E 004°57'0 0.0
2014-Oct-11 22:31N 43°25' E 004°57'0 0.0
2014-Oct-11 21:31N 43°25' E 004°57'0 0.1
2014-Oct-11 20:28N 43°25' E 004°57'3 3.5
2014-Oct-11 19:34N 43°22' E 004°58'1110.3
2014-Oct-11 18:31N 43°11' E 005°02'1110.9
2014-Oct-11 17:33N 43°03' E 004°52'1110.6
2014-Oct-11 16:32N 42°56' E 004°42'6310.1
2014-Oct-11 10:15N 42°10' E 003°42'17 9.8
2014-Oct-11 08:32N 41°58' E 003°26'10310.3
2014-Oct-10 22:30N 40°57' E 001°35'  

Dump ship's entire track history